sensor_id;sensor_type;location;lat;lon;timestamp;P1;durP1;ratioP1;P2;durP2;ratioP2
7239;SDS011;3661;53.288;10.458;2022-07-29T00:02:02;5.85;;;5.65;;
7239;SDS011;3661;53.288;10.458;2022-07-29T00:04:34;5.85;;;5.65;;
7239;SDS011;3661;53.288;10.458;2022-07-29T00:07:07;5.90;;;5.40;;
7239;SDS011;3661;53.288;10.458;2022-07-29T00:09:39;4.40;;;4.20;;
7239;SDS011;3661;53.288;10.458;2022-07-29T00:12:12;5.72;;;5.47;;
7239;SDS011;3661;53.288;10.458;2022-07-29T00:14:45;6.18;;;5.88;;
7239;SDS011;3661;53.288;10.458;2022-07-29T00:17:17;7.28;;;6.78;;
7239;SDS011;3661;53.288;10.458;2022-07-29T00:19:49;6.30;;;6.10;;
7239;SDS011;3661;53.288;10.458;2022-07-29T00:22:21;6.05;;;5.68;;
7239;SDS011;3661;53.288;10.458;2022-07-29T00:24:54;5.47;;;5.38;;
7239;SDS011;3661;53.288;10.458;2022-07-29T00:27:26;6.68;;;6.28;;
7239;SDS011;3661;53.288;10.458;2022-07-29T00:29:59;6.72;;;6.43;;
7239;SDS011;3661;53.288;10.458;2022-07-29T00:32:32;5.85;;;5.65;;
7239;SDS011;3661;53.288;10.458;2022-07-29T00:35:05;6.22;;;6.03;;
7239;SDS011;3661;53.288;10.458;2022-07-29T00:37:55;5.05;;;4.90;;
7239;SDS011;3661;53.288;10.458;2022-07-29T00:40:28;5.80;;;5.30;;
7239;SDS011;3661;53.288;10.458;2022-07-29T00:43:00;7.32;;;6.88;;
7239;SDS011;3661;53.288;10.458;2022-07-29T00:45:34;6.72;;;6.32;;
7239;SDS011;3661;53.288;10.458;2022-07-29T00:48:07;6.20;;;5.88;;
7239;SDS011;3661;53.288;10.458;2022-07-29T00:50:39;6.55;;;6.30;;
7239;SDS011;3661;53.288;10.458;2022-07-29T00:53:11;5.95;;;5.55;;
7239;SDS011;3661;53.288;10.458;2022-07-29T00:55:44;6.95;;;6.65;;
7239;SDS011;3661;53.288;10.458;2022-07-29T00:58:16;5.40;;;5.10;;
7239;SDS011;3661;53.288;10.458;2022-07-29T01:00:50;5.88;;;5.63;;
7239;SDS011;3661;53.288;10.458;2022-07-29T01:03:22;6.15;;;5.82;;
7239;SDS011;3661;53.288;10.458;2022-07-29T01:05:55;6.25;;;5.90;;
7239;SDS011;3661;53.288;10.458;2022-07-29T01:08:28;6.95;;;6.55;;
7239;SDS011;3661;53.288;10.458;2022-07-29T01:11:01;6.30;;;6.10;;
7239;SDS011;3661;53.288;10.458;2022-07-29T01:13:35;6.43;;;6.15;;
7239;SDS011;3661;53.288;10.458;2022-07-29T01:16:10;6.45;;;6.22;;
7239;SDS011;3661;53.288;10.458;2022-07-29T01:18:49;6.63;;;6.43;;
7239;SDS011;3661;53.288;10.458;2022-07-29T01:21:37;5.57;;;5.15;;
7239;SDS011;3661;53.288;10.458;2022-07-29T01:24:27;4.88;;;4.68;;
7239;SDS011;3661;53.288;10.458;2022-07-29T01:27:08;5.32;;;5.10;;
7239;SDS011;3661;53.288;10.458;2022-07-29T01:29:59;6.75;;;6.45;;
7239;SDS011;3661;53.288;10.458;2022-07-29T01:32:35;6.50;;;6.10;;
7239;SDS011;3661;53.288;10.458;2022-07-29T01:35:10;7.07;;;6.57;;
7239;SDS011;3661;53.288;10.458;2022-07-29T01:37:48;6.88;;;6.38;;
7239;SDS011;3661;53.288;10.458;2022-07-29T01:40:27;6.33;;;6.03;;
7239;SDS011;3661;53.288;10.458;2022-07-29T01:43:06;7.55;;;7.28;;
7239;SDS011;3661;53.288;10.458;2022-07-29T01:45:46;6.45;;;6.22;;
7239;SDS011;3661;53.288;10.458;2022-07-29T01:48:37;7.13;;;6.82;;
7239;SDS011;3661;53.288;10.458;2022-07-29T01:51:18;8.02;;;7.68;;
7239;SDS011;3661;53.288;10.458;2022-07-29T01:53:55;6.55;;;6.22;;
7239;SDS011;3661;53.288;10.458;2022-07-29T01:56:33;8.00;;;7.55;;
7239;SDS011;3661;53.288;10.458;2022-07-29T01:59:08;7.32;;;6.93;;
7239;SDS011;3661;53.288;10.458;2022-07-29T02:01:43;8.05;;;7.75;;
7239;SDS011;3661;53.288;10.458;2022-07-29T02:04:20;6.07;;;5.88;;
7239;SDS011;3661;53.288;10.458;2022-07-29T02:06:54;6.63;;;6.23;;
7239;SDS011;3661;53.288;10.458;2022-07-29T02:09:32;5.95;;;5.75;;
7239;SDS011;3661;53.288;10.458;2022-07-29T02:12:07;6.07;;;5.82;;
7239;SDS011;3661;53.288;10.458;2022-07-29T02:14:42;6.70;;;6.20;;
7239;SDS011;3661;53.288;10.458;2022-07-29T02:17:19;5.60;;;5.20;;
7239;SDS011;3661;53.288;10.458;2022-07-29T02:19:56;5.07;;;4.82;;
7239;SDS011;3661;53.288;10.458;2022-07-29T02:22:31;6.97;;;6.50;;
7239;SDS011;3661;53.288;10.458;2022-07-29T02:25:06;5.53;;;5.30;;
7239;SDS011;3661;53.288;10.458;2022-07-29T02:27:40;7.73;;;7.30;;
7239;SDS011;3661;53.288;10.458;2022-07-29T02:30:13;7.00;;;6.70;;
7239;SDS011;3661;53.288;10.458;2022-07-29T02:32:48;7.25;;;6.75;;
7239;SDS011;3661;53.288;10.458;2022-07-29T02:35:46;7.75;;;7.40;;
7239;SDS011;3661;53.288;10.458;2022-07-29T02:38:18;7.78;;;7.47;;
7239;SDS011;3661;53.288;10.458;2022-07-29T02:41:11;6.93;;;6.60;;
7239;SDS011;3661;53.288;10.458;2022-07-29T02:43:47;7.03;;;6.53;;
7239;SDS011;3661;53.288;10.458;2022-07-29T02:46:26;8.03;;;7.73;;
7239;SDS011;3661;53.288;10.458;2022-07-29T02:49:04;8.40;;;8.00;;
7239;SDS011;3661;53.288;10.458;2022-07-29T02:51:42;7.95;;;7.47;;
7239;SDS011;3661;53.288;10.458;2022-07-29T02:54:20;6.93;;;6.47;;
7239;SDS011;3661;53.288;10.458;2022-07-29T02:56:57;6.37;;;6.17;;
7239;SDS011;3661;53.288;10.458;2022-07-29T02:59:32;7.65;;;7.20;;
7239;SDS011;3661;53.288;10.458;2022-07-29T03:02:07;7.28;;;6.75;;
7239;SDS011;3661;53.288;10.458;2022-07-29T03:04:42;6.68;;;6.38;;
7239;SDS011;3661;53.288;10.458;2022-07-29T03:07:15;7.50;;;7.10;;
7239;SDS011;3661;53.288;10.458;2022-07-29T03:09:51;6.53;;;6.22;;
7239;SDS011;3661;53.288;10.458;2022-07-29T03:12:24;5.82;;;5.43;;
7239;SDS011;3661;53.288;10.458;2022-07-29T03:14:58;10.30;;;9.63;;
7239;SDS011;3661;53.288;10.458;2022-07-29T03:17:32;8.65;;;8.35;;
7239;SDS011;3661;53.288;10.458;2022-07-29T03:20:08;7.63;;;7.28;;
7239;SDS011;3661;53.288;10.458;2022-07-29T03:22:42;7.13;;;6.70;;
7239;SDS011;3661;53.288;10.458;2022-07-29T03:25:18;6.60;;;6.30;;
7239;SDS011;3661;53.288;10.458;2022-07-29T03:27:50;7.13;;;6.68;;
7239;SDS011;3661;53.288;10.458;2022-07-29T03:30:23;7.07;;;6.78;;
7239;SDS011;3661;53.288;10.458;2022-07-29T03:32:55;7.82;;;7.53;;
7239;SDS011;3661;53.288;10.458;2022-07-29T03:35:29;7.10;;;6.80;;
7239;SDS011;3661;53.288;10.458;2022-07-29T03:38:01;6.60;;;6.30;;
7239;SDS011;3661;53.288;10.458;2022-07-29T03:40:38;7.85;;;7.45;;
7239;SDS011;3661;53.288;10.458;2022-07-29T03:43:16;7.35;;;6.95;;
7239;SDS011;3661;53.288;10.458;2022-07-29T03:45:49;8.38;;;7.88;;
7239;SDS011;3661;53.288;10.458;2022-07-29T03:48:25;6.05;;;5.75;;
7239;SDS011;3661;53.288;10.458;2022-07-29T03:51:00;6.22;;;5.82;;
7239;SDS011;3661;53.288;10.458;2022-07-29T03:53:33;6.15;;;5.75;;
7239;SDS011;3661;53.288;10.458;2022-07-29T03:56:07;6.28;;;5.88;;
7239;SDS011;3661;53.288;10.458;2022-07-29T03:58:44;7.45;;;7.13;;
7239;SDS011;3661;53.288;10.458;2022-07-29T04:01:17;7.22;;;6.78;;
7239;SDS011;3661;53.288;10.458;2022-07-29T04:03:49;7.57;;;7.18;;
7239;SDS011;3661;53.288;10.458;2022-07-29T04:06:24;6.83;;;6.53;;
7239;SDS011;3661;53.288;10.458;2022-07-29T04:08:57;7.32;;;6.93;;
7239;SDS011;3661;53.288;10.458;2022-07-29T04:11:29;6.57;;;6.18;;
7239;SDS011;3661;53.288;10.458;2022-07-29T04:14:02;6.22;;;6.00;;
7239;SDS011;3661;53.288;10.458;2022-07-29T04:16:34;7.20;;;6.68;;
7239;SDS011;3661;53.288;10.458;2022-07-29T04:19:07;6.47;;;6.18;;
7239;SDS011;3661;53.288;10.458;2022-07-29T04:21:40;6.93;;;6.57;;
7239;SDS011;3661;53.288;10.458;2022-07-29T04:24:15;7.13;;;6.63;;
7239;SDS011;3661;53.288;10.458;2022-07-29T04:26:47;6.97;;;6.53;;
7239;SDS011;3661;53.288;10.458;2022-07-29T04:29:19;6.68;;;6.05;;
7239;SDS011;3661;53.288;10.458;2022-07-29T04:31:51;7.07;;;6.45;;
7239;SDS011;3661;53.288;10.458;2022-07-29T04:34:23;7.97;;;7.50;;
7239;SDS011;3661;53.288;10.458;2022-07-29T04:36:57;5.85;;;5.45;;
7239;SDS011;3661;53.288;10.458;2022-07-29T04:39:29;9.00;;;8.50;;
7239;SDS011;3661;53.288;10.458;2022-07-29T04:42:01;8.98;;;8.57;;
7239;SDS011;3661;53.288;10.458;2022-07-29T04:44:34;8.15;;;7.65;;
7239;SDS011;3661;53.288;10.458;2022-07-29T04:47:07;10.13;;;9.73;;
7239;SDS011;3661;53.288;10.458;2022-07-29T04:49:39;7.22;;;6.68;;
7239;SDS011;3661;53.288;10.458;2022-07-29T04:52:12;6.60;;;6.20;;
7239;SDS011;3661;53.288;10.458;2022-07-29T04:54:44;7.38;;;6.88;;
7239;SDS011;3661;53.288;10.458;2022-07-29T04:57:20;6.65;;;6.43;;
7239;SDS011;3661;53.288;10.458;2022-07-29T04:59:52;6.78;;;6.30;;
7239;SDS011;3661;53.288;10.458;2022-07-29T05:02:24;9.32;;;8.82;;
7239;SDS011;3661;53.288;10.458;2022-07-29T05:04:56;6.57;;;6.28;;
7239;SDS011;3661;53.288;10.458;2022-07-29T05:07:30;6.85;;;6.32;;
7239;SDS011;3661;53.288;10.458;2022-07-29T05:10:02;7.90;;;7.60;;
7239;SDS011;3661;53.288;10.458;2022-07-29T05:12:35;7.03;;;6.63;;
7239;SDS011;3661;53.288;10.458;2022-07-29T05:15:08;6.23;;;5.83;;
7239;SDS011;3661;53.288;10.458;2022-07-29T05:17:41;7.53;;;7.20;;
7239;SDS011;3661;53.288;10.458;2022-07-29T05:20:13;7.32;;;6.93;;
7239;SDS011;3661;53.288;10.458;2022-07-29T05:22:46;9.68;;;8.98;;
7239;SDS011;3661;53.288;10.458;2022-07-29T05:25:18;9.47;;;8.77;;
7239;SDS011;3661;53.288;10.458;2022-07-29T05:27:51;6.85;;;6.55;;
7239;SDS011;3661;53.288;10.458;2022-07-29T05:30:24;7.50;;;7.00;;
7239;SDS011;3661;53.288;10.458;2022-07-29T05:32:56;6.63;;;6.25;;
7239;SDS011;3661;53.288;10.458;2022-07-29T05:35:28;5.57;;;5.18;;
7239;SDS011;3661;53.288;10.458;2022-07-29T05:38:02;7.18;;;5.75;;
7239;SDS011;3661;53.288;10.458;2022-07-29T05:40:35;6.80;;;6.20;;
7239;SDS011;3661;53.288;10.458;2022-07-29T05:43:07;6.57;;;6.17;;
7239;SDS011;3661;53.288;10.458;2022-07-29T05:45:39;6.90;;;6.38;;
7239;SDS011;3661;53.288;10.458;2022-07-29T05:48:11;6.18;;;5.78;;
7239;SDS011;3661;53.288;10.458;2022-07-29T05:50:43;6.30;;;6.00;;
7239;SDS011;3661;53.288;10.458;2022-07-29T05:53:18;6.28;;;5.88;;
7239;SDS011;3661;53.288;10.458;2022-07-29T05:55:50;6.57;;;6.17;;
7239;SDS011;3661;53.288;10.458;2022-07-29T05:58:22;7.07;;;6.65;;
7239;SDS011;3661;53.288;10.458;2022-07-29T06:00:54;5.22;;;4.90;;
7239;SDS011;3661;53.288;10.458;2022-07-29T06:03:29;7.40;;;6.90;;
7239;SDS011;3661;53.288;10.458;2022-07-29T06:06:01;6.90;;;6.53;;
7239;SDS011;3661;53.288;10.458;2022-07-29T06:08:35;6.63;;;6.22;;
7239;SDS011;3661;53.288;10.458;2022-07-29T06:11:07;7.00;;;6.55;;
7239;SDS011;3661;53.288;10.458;2022-07-29T06:13:39;6.55;;;6.13;;
7239;SDS011;3661;53.288;10.458;2022-07-29T06:16:11;7.15;;;6.85;;
7239;SDS011;3661;53.288;10.458;2022-07-29T06:18:44;8.00;;;7.60;;
7239;SDS011;3661;53.288;10.458;2022-07-29T06:21:16;6.78;;;6.38;;
7239;SDS011;3661;53.288;10.458;2022-07-29T06:23:49;8.93;;;8.32;;
7239;SDS011;3661;53.288;10.458;2022-07-29T06:26:21;7.35;;;7.07;;
7239;SDS011;3661;53.288;10.458;2022-07-29T06:28:54;7.60;;;7.20;;
7239;SDS011;3661;53.288;10.458;2022-07-29T06:31:26;10.38;;;9.95;;
7239;SDS011;3661;53.288;10.458;2022-07-29T06:33:58;8.57;;;8.10;;
7239;SDS011;3661;53.288;10.458;2022-07-29T06:36:30;10.02;;;9.45;;
7239;SDS011;3661;53.288;10.458;2022-07-29T06:39:07;5.90;;;5.65;;
7239;SDS011;3661;53.288;10.458;2022-07-29T06:41:39;7.82;;;7.35;;
7239;SDS011;3661;53.288;10.458;2022-07-29T06:44:11;7.75;;;7.35;;
7239;SDS011;3661;53.288;10.458;2022-07-29T06:46:44;7.55;;;7.05;;
7239;SDS011;3661;53.288;10.458;2022-07-29T06:49:19;7.15;;;6.65;;
7239;SDS011;3661;53.288;10.458;2022-07-29T06:51:51;7.72;;;7.22;;
7239;SDS011;3661;53.288;10.458;2022-07-29T06:54:24;7.07;;;6.78;;
7239;SDS011;3661;53.288;10.458;2022-07-29T06:56:56;8.13;;;7.63;;
7239;SDS011;3661;53.288;10.458;2022-07-29T06:59:29;7.50;;;7.03;;
7239;SDS011;3661;53.288;10.458;2022-07-29T07:02:02;7.65;;;7.32;;
7239;SDS011;3661;53.288;10.458;2022-07-29T07:04:34;7.75;;;7.35;;
7239;SDS011;3661;53.288;10.458;2022-07-29T07:07:06;6.97;;;6.57;;
7239;SDS011;3661;53.288;10.458;2022-07-29T07:09:40;9.10;;;8.57;;
7239;SDS011;3661;53.288;10.458;2022-07-29T07:12:12;6.50;;;6.20;;
7239;SDS011;3661;53.288;10.458;2022-07-29T07:14:44;7.05;;;6.65;;
7239;SDS011;3661;53.288;10.458;2022-07-29T07:17:16;7.07;;;6.68;;
7239;SDS011;3661;53.288;10.458;2022-07-29T07:19:48;6.72;;;6.13;;
7239;SDS011;3661;53.288;10.458;2022-07-29T07:22:20;6.75;;;6.25;;
7239;SDS011;3661;53.288;10.458;2022-07-29T07:24:54;6.65;;;6.25;;
7239;SDS011;3661;53.288;10.458;2022-07-29T07:27:26;6.53;;;6.22;;
7239;SDS011;3661;53.288;10.458;2022-07-29T07:29:58;6.70;;;6.35;;
7239;SDS011;3661;53.288;10.458;2022-07-29T07:32:30;7.10;;;6.78;;
7239;SDS011;3661;53.288;10.458;2022-07-29T07:35:02;5.82;;;5.47;;
7239;SDS011;3661;53.288;10.458;2022-07-29T07:37:35;7.90;;;7.50;;
7239;SDS011;3661;53.288;10.458;2022-07-29T07:40:12;6.60;;;6.28;;
7239;SDS011;3661;53.288;10.458;2022-07-29T07:42:44;8.45;;;7.90;;
7239;SDS011;3661;53.288;10.458;2022-07-29T07:45:17;9.60;;;9.00;;
7239;SDS011;3661;53.288;10.458;2022-07-29T07:47:49;6.57;;;6.20;;
7239;SDS011;3661;53.288;10.458;2022-07-29T07:50:21;6.13;;;5.82;;
7239;SDS011;3661;53.288;10.458;2022-07-29T07:52:54;7.68;;;7.28;;
7239;SDS011;3661;53.288;10.458;2022-07-29T07:55:29;7.87;;;7.20;;
7239;SDS011;3661;53.288;10.458;2022-07-29T07:58:01;8.43;;;8.13;;
7239;SDS011;3661;53.288;10.458;2022-07-29T08:04:02;9.60;;;9.07;;
7239;SDS011;3661;53.288;10.458;2022-07-29T08:10:01;8.13;;;7.53;;
7239;SDS011;3661;53.288;10.458;2022-07-29T08:16:05;9.60;;;8.93;;
7239;SDS011;3661;53.288;10.458;2022-07-29T08:22:12;8.15;;;7.68;;
7239;SDS011;3661;53.288;10.458;2022-07-29T08:31:49;7.80;;;7.50;;
7239;SDS011;3661;53.288;10.458;2022-07-29T08:37:48;8.00;;;7.70;;
7239;SDS011;3661;53.288;10.458;2022-07-29T08:43:47;8.25;;;7.85;;
7239;SDS011;3661;53.288;10.458;2022-07-29T08:49:59;13.90;;;13.23;;
7239;SDS011;3661;53.288;10.458;2022-07-29T08:56:00;14.80;;;14.30;;
7239;SDS011;3661;53.288;10.458;2022-07-29T09:02:01;12.10;;;11.52;;
7239;SDS011;3661;53.288;10.458;2022-07-29T09:08:03;10.35;;;9.85;;
7239;SDS011;3661;53.288;10.458;2022-07-29T09:17:55;12.30;;;11.90;;
7239;SDS011;3661;53.288;10.458;2022-07-29T09:24:02;9.63;;;9.23;;
7239;SDS011;3661;53.288;10.458;2022-07-29T09:26:37;10.77;;;10.38;;
7239;SDS011;3661;53.288;10.458;2022-07-29T09:29:11;9.93;;;9.52;;
7239;SDS011;3661;53.288;10.458;2022-07-29T09:31:45;10.88;;;10.48;;
7239;SDS011;3661;53.288;10.458;2022-07-29T09:34:21;9.93;;;9.55;;
7239;SDS011;3661;53.288;10.458;2022-07-29T09:36:54;11.25;;;10.65;;
7239;SDS011;3661;53.288;10.458;2022-07-29T09:39:28;10.13;;;9.63;;
7239;SDS011;3661;53.288;10.458;2022-07-29T09:42:02;9.88;;;9.50;;
7239;SDS011;3661;53.288;10.458;2022-07-29T09:44:42;8.93;;;8.63;;
7239;SDS011;3661;53.288;10.458;2022-07-29T09:47:16;8.48;;;7.97;;
7239;SDS011;3661;53.288;10.458;2022-07-29T09:49:52;8.63;;;8.23;;
7239;SDS011;3661;53.288;10.458;2022-07-29T09:52:28;8.80;;;8.43;;
7239;SDS011;3661;53.288;10.458;2022-07-29T09:55:06;7.73;;;7.43;;
7239;SDS011;3661;53.288;10.458;2022-07-29T09:57:38;7.70;;;7.40;;
7239;SDS011;3661;53.288;10.458;2022-07-29T10:00:13;8.00;;;7.65;;
7239;SDS011;3661;53.288;10.458;2022-07-29T10:02:48;7.87;;;7.53;;
7239;SDS011;3661;53.288;10.458;2022-07-29T10:05:21;8.23;;;7.93;;
7239;SDS011;3661;53.288;10.458;2022-07-29T10:07:55;7.33;;;7.03;;
7239;SDS011;3661;53.288;10.458;2022-07-29T10:10:30;7.32;;;7.05;;
7239;SDS011;3661;53.288;10.458;2022-07-29T10:13:05;6.35;;;6.05;;
7239;SDS011;3661;53.288;10.458;2022-07-29T10:15:39;6.50;;;6.00;;
7239;SDS011;3661;53.288;10.458;2022-07-29T10:18:14;6.47;;;6.07;;
7239;SDS011;3661;53.288;10.458;2022-07-29T10:20:49;6.53;;;6.13;;
7239;SDS011;3661;53.288;10.458;2022-07-29T10:23:22;6.53;;;5.95;;
7239;SDS011;3661;53.288;10.458;2022-07-29T10:25:56;7.30;;;6.80;;
7239;SDS011;3661;53.288;10.458;2022-07-29T10:28:29;7.38;;;6.95;;
7239;SDS011;3661;53.288;10.458;2022-07-29T10:31:03;6.68;;;6.28;;
7239;SDS011;3661;53.288;10.458;2022-07-29T10:33:41;6.85;;;6.38;;
7239;SDS011;3661;53.288;10.458;2022-07-29T10:36:35;6.38;;;6.07;;
7239;SDS011;3661;53.288;10.458;2022-07-29T10:39:19;7.78;;;7.38;;
7239;SDS011;3661;53.288;10.458;2022-07-29T10:42:11;8.00;;;7.60;;
7239;SDS011;3661;53.288;10.458;2022-07-29T10:44:48;7.45;;;7.15;;
7239;SDS011;3661;53.288;10.458;2022-07-29T10:47:22;7.55;;;7.13;;
7239;SDS011;3661;53.288;10.458;2022-07-29T10:49:55;7.30;;;7.00;;
7239;SDS011;3661;53.288;10.458;2022-07-29T10:55:31;7.37;;;7.17;;
7239;SDS011;3661;53.288;10.458;2022-07-29T10:58:15;7.78;;;7.43;;
7239;SDS011;3661;53.288;10.458;2022-07-29T11:00:49;8.15;;;7.65;;
7239;SDS011;3661;53.288;10.458;2022-07-29T11:06:19;7.50;;;7.07;;
7239;SDS011;3661;53.288;10.458;2022-07-29T11:11:49;6.90;;;6.60;;
7239;SDS011;3661;53.288;10.458;2022-07-29T11:17:38;6.93;;;6.70;;
7239;SDS011;3661;53.288;10.458;2022-07-29T11:20:38;6.80;;;6.40;;
7239;SDS011;3661;53.288;10.458;2022-07-29T11:23:18;8.55;;;7.95;;
7239;SDS011;3661;53.288;10.458;2022-07-29T11:26:14;7.63;;;7.32;;
7239;SDS011;3661;53.288;10.458;2022-07-29T11:28:51;6.88;;;6.63;;
7239;SDS011;3661;53.288;10.458;2022-07-29T11:31:35;7.72;;;6.90;;
7239;SDS011;3661;53.288;10.458;2022-07-29T11:34:18;6.70;;;6.40;;
7239;SDS011;3661;53.288;10.458;2022-07-29T11:40:12;6.63;;;6.43;;
7239;SDS011;3661;53.288;10.458;2022-07-29T11:42:47;7.28;;;6.97;;
7239;SDS011;3661;53.288;10.458;2022-07-29T11:45:23;7.72;;;7.07;;
7239;SDS011;3661;53.288;10.458;2022-07-29T11:51:30;7.05;;;6.85;;
7239;SDS011;3661;53.288;10.458;2022-07-29T11:57:29;6.43;;;5.93;;
7239;SDS011;3661;53.288;10.458;2022-07-29T12:03:29;5.97;;;5.60;;
7239;SDS011;3661;53.288;10.458;2022-07-29T12:09:29;9.90;;;9.07;;
7239;SDS011;3661;53.288;10.458;2022-07-29T12:19:16;8.60;;;8.20;;
7239;SDS011;3661;53.288;10.458;2022-07-29T12:25:17;7.15;;;6.95;;
7239;SDS011;3661;53.288;10.458;2022-07-29T12:31:16;9.43;;;8.97;;
7239;SDS011;3661;53.288;10.458;2022-07-29T12:37:15;7.55;;;7.15;;
7239;SDS011;3661;53.288;10.458;2022-07-29T12:43:16;8.40;;;7.80;;
7239;SDS011;3661;53.288;10.458;2022-07-29T12:49:20;7.38;;;7.03;;
7239;SDS011;3661;53.288;10.458;2022-07-29T12:58:10;9.38;;;8.77;;
7239;SDS011;3661;53.288;10.458;2022-07-29T13:01:00;8.35;;;7.95;;
7239;SDS011;3661;53.288;10.458;2022-07-29T13:03:46;9.23;;;8.93;;
7239;SDS011;3661;53.288;10.458;2022-07-29T13:06:34;7.70;;;7.30;;
7239;SDS011;3661;53.288;10.458;2022-07-29T13:09:09;9.07;;;8.77;;
7239;SDS011;3661;53.288;10.458;2022-07-29T13:11:43;6.80;;;6.55;;
7239;SDS011;3661;53.288;10.458;2022-07-29T13:14:31;6.82;;;6.53;;
7239;SDS011;3661;53.288;10.458;2022-07-29T13:17:04;7.40;;;7.00;;
7239;SDS011;3661;53.288;10.458;2022-07-29T13:19:38;6.90;;;6.50;;
7239;SDS011;3661;53.288;10.458;2022-07-29T13:22:12;6.85;;;6.57;;
7239;SDS011;3661;53.288;10.458;2022-07-29T13:24:46;6.72;;;6.43;;
7239;SDS011;3661;53.288;10.458;2022-07-29T13:27:23;5.43;;;5.13;;
7239;SDS011;3661;53.288;10.458;2022-07-29T13:29:58;5.43;;;5.13;;
7239;SDS011;3661;53.288;10.458;2022-07-29T13:32:32;5.30;;;5.00;;
7239;SDS011;3661;53.288;10.458;2022-07-29T13:35:05;5.90;;;5.65;;
7239;SDS011;3661;53.288;10.458;2022-07-29T13:37:38;5.68;;;5.47;;
7239;SDS011;3661;53.288;10.458;2022-07-29T13:40:11;6.10;;;5.70;;
7239;SDS011;3661;53.288;10.458;2022-07-29T13:42:43;5.00;;;4.70;;
7239;SDS011;3661;53.288;10.458;2022-07-29T13:45:17;6.05;;;5.68;;
7239;SDS011;3661;53.288;10.458;2022-07-29T13:47:50;5.50;;;5.20;;
7239;SDS011;3661;53.288;10.458;2022-07-29T13:50:22;4.47;;;4.18;;
7239;SDS011;3661;53.288;10.458;2022-07-29T13:52:54;5.07;;;4.78;;
7239;SDS011;3661;53.288;10.458;2022-07-29T13:55:26;4.57;;;4.38;;
7239;SDS011;3661;53.288;10.458;2022-07-29T13:57:59;4.50;;;4.10;;
7239;SDS011;3661;53.288;10.458;2022-07-29T14:00:33;4.88;;;4.57;;
7239;SDS011;3661;53.288;10.458;2022-07-29T14:03:07;6.03;;;5.68;;
7239;SDS011;3661;53.288;10.458;2022-07-29T14:05:40;4.43;;;4.07;;
7239;SDS011;3661;53.288;10.458;2022-07-29T14:08:12;24.08;;;9.13;;
7239;SDS011;3661;53.288;10.458;2022-07-29T14:10:44;8.10;;;5.68;;
7239;SDS011;3661;53.288;10.458;2022-07-29T14:13:16;4.70;;;4.50;;
7239;SDS011;3661;53.288;10.458;2022-07-29T14:15:49;5.50;;;4.93;;
7239;SDS011;3661;53.288;10.458;2022-07-29T14:18:21;6.45;;;5.18;;
7239;SDS011;3661;53.288;10.458;2022-07-29T14:20:54;4.60;;;4.40;;
7239;SDS011;3661;53.288;10.458;2022-07-29T14:23:26;6.13;;;5.68;;
7239;SDS011;3661;53.288;10.458;2022-07-29T14:25:58;5.90;;;5.50;;
7239;SDS011;3661;53.288;10.458;2022-07-29T14:28:30;4.30;;;4.03;;
7239;SDS011;3661;53.288;10.458;2022-07-29T14:31:07;4.38;;;4.18;;
7239;SDS011;3661;53.288;10.458;2022-07-29T14:33:39;4.63;;;4.28;;
7239;SDS011;3661;53.288;10.458;2022-07-29T14:36:12;4.53;;;4.13;;
7239;SDS011;3661;53.288;10.458;2022-07-29T14:38:44;5.00;;;4.70;;
7239;SDS011;3661;53.288;10.458;2022-07-29T14:41:16;4.75;;;4.35;;
7239;SDS011;3661;53.288;10.458;2022-07-29T14:43:48;4.30;;;3.90;;
7239;SDS011;3661;53.288;10.458;2022-07-29T14:46:23;4.80;;;4.47;;
7239;SDS011;3661;53.288;10.458;2022-07-29T14:48:55;5.00;;;4.13;;
7239;SDS011;3661;53.288;10.458;2022-07-29T14:51:27;4.80;;;4.40;;
7239;SDS011;3661;53.288;10.458;2022-07-29T14:53:59;4.07;;;3.85;;
7239;SDS011;3661;53.288;10.458;2022-07-29T14:56:32;3.90;;;3.70;;
7239;SDS011;3661;53.288;10.458;2022-07-29T14:59:04;4.68;;;4.47;;
7239;SDS011;3661;53.288;10.458;2022-07-29T15:01:37;4.80;;;4.60;;
7239;SDS011;3661;53.288;10.458;2022-07-29T15:04:09;5.50;;;5.18;;
7239;SDS011;3661;53.288;10.458;2022-07-29T15:06:41;4.70;;;4.38;;
7239;SDS011;3661;53.288;10.458;2022-07-29T15:09:13;4.50;;;4.30;;
7239;SDS011;3661;53.288;10.458;2022-07-29T15:11:46;5.07;;;4.72;;
7239;SDS011;3661;53.288;10.458;2022-07-29T15:14:18;5.10;;;4.80;;
7239;SDS011;3661;53.288;10.458;2022-07-29T15:16:51;4.35;;;4.13;;
7239;SDS011;3661;53.288;10.458;2022-07-29T15:19:23;5.68;;;4.57;;
7239;SDS011;3661;53.288;10.458;2022-07-29T15:21:55;4.78;;;4.47;;
7239;SDS011;3661;53.288;10.458;2022-07-29T15:24:28;4.80;;;4.40;;
7239;SDS011;3661;53.288;10.458;2022-07-29T15:27:00;4.95;;;4.65;;
7239;SDS011;3661;53.288;10.458;2022-07-29T15:29:32;5.07;;;4.65;;
7239;SDS011;3661;53.288;10.458;2022-07-29T15:32:06;5.10;;;4.70;;
7239;SDS011;3661;53.288;10.458;2022-07-29T15:34:38;5.40;;;5.13;;
7239;SDS011;3661;53.288;10.458;2022-07-29T15:37:11;5.20;;;5.00;;
7239;SDS011;3661;53.288;10.458;2022-07-29T15:39:43;5.32;;;5.13;;
7239;SDS011;3661;53.288;10.458;2022-07-29T15:42:15;5.50;;;5.10;;
7239;SDS011;3661;53.288;10.458;2022-07-29T15:44:47;5.65;;;5.25;;
7239;SDS011;3661;53.288;10.458;2022-07-29T15:47:20;5.65;;;5.15;;
7239;SDS011;3661;53.288;10.458;2022-07-29T15:49:53;5.03;;;4.53;;
7239;SDS011;3661;53.288;10.458;2022-07-29T15:52:25;4.50;;;4.20;;
7239;SDS011;3661;53.288;10.458;2022-07-29T15:54:57;5.57;;;5.18;;
7239;SDS011;3661;53.288;10.458;2022-07-29T15:57:29;4.97;;;4.68;;
7239;SDS011;3661;53.288;10.458;2022-07-29T16:00:02;5.63;;;5.30;;
7239;SDS011;3661;53.288;10.458;2022-07-29T16:02:36;5.17;;;4.87;;
7239;SDS011;3661;53.288;10.458;2022-07-29T16:05:08;5.17;;;4.87;;
7239;SDS011;3661;53.288;10.458;2022-07-29T16:07:41;4.93;;;4.60;;
7239;SDS011;3661;53.288;10.458;2022-07-29T16:10:13;5.00;;;4.77;;
7239;SDS011;3661;53.288;10.458;2022-07-29T16:12:46;6.00;;;5.53;;
7239;SDS011;3661;53.288;10.458;2022-07-29T16:15:18;6.22;;;5.45;;
7239;SDS011;3661;53.288;10.458;2022-07-29T16:17:51;5.82;;;5.32;;
7239;SDS011;3661;53.288;10.458;2022-07-29T16:20:23;5.13;;;4.68;;
7239;SDS011;3661;53.288;10.458;2022-07-29T16:22:55;5.53;;;5.13;;
7239;SDS011;3661;53.288;10.458;2022-07-29T16:25:28;4.97;;;4.60;;
7239;SDS011;3661;53.288;10.458;2022-07-29T16:28:00;5.03;;;4.65;;
7239;SDS011;3661;53.288;10.458;2022-07-29T16:30:32;4.57;;;4.28;;
7239;SDS011;3661;53.288;10.458;2022-07-29T16:33:05;4.50;;;4.25;;
7239;SDS011;3661;53.288;10.458;2022-07-29T16:35:40;5.25;;;4.70;;
7239;SDS011;3661;53.288;10.458;2022-07-29T16:38:13;4.75;;;4.47;;
7239;SDS011;3661;53.288;10.458;2022-07-29T16:40:45;4.75;;;4.40;;
7239;SDS011;3661;53.288;10.458;2022-07-29T16:43:17;4.75;;;4.45;;
7239;SDS011;3661;53.288;10.458;2022-07-29T16:45:49;4.85;;;4.60;;
7239;SDS011;3661;53.288;10.458;2022-07-29T16:48:22;5.57;;;4.40;;
7239;SDS011;3661;53.288;10.458;2022-07-29T16:50:54;5.40;;;5.07;;
7239;SDS011;3661;53.288;10.458;2022-07-29T16:53:27;5.18;;;4.78;;
7239;SDS011;3661;53.288;10.458;2022-07-29T16:55:59;5.25;;;4.93;;
7239;SDS011;3661;53.288;10.458;2022-07-29T16:58:31;5.00;;;4.65;;
7239;SDS011;3661;53.288;10.458;2022-07-29T17:01:03;5.57;;;5.15;;
7239;SDS011;3661;53.288;10.458;2022-07-29T17:03:37;6.25;;;5.82;;
7239;SDS011;3661;53.288;10.458;2022-07-29T17:06:29;6.85;;;6.40;;
7239;SDS011;3661;53.288;10.458;2022-07-29T17:09:04;6.43;;;6.05;;
7239;SDS011;3661;53.288;10.458;2022-07-29T17:11:37;6.40;;;6.00;;
7239;SDS011;3661;53.288;10.458;2022-07-29T17:14:10;7.45;;;6.95;;
7239;SDS011;3661;53.288;10.458;2022-07-29T17:16:43;6.43;;;5.82;;
7239;SDS011;3661;53.288;10.458;2022-07-29T17:19:16;7.03;;;6.63;;
7239;SDS011;3661;53.288;10.458;2022-07-29T17:21:48;6.97;;;6.47;;
7239;SDS011;3661;53.288;10.458;2022-07-29T17:24:20;6.97;;;6.57;;
7239;SDS011;3661;53.288;10.458;2022-07-29T17:26:52;5.97;;;5.68;;
7239;SDS011;3661;53.288;10.458;2022-07-29T17:29:25;7.32;;;6.93;;
7239;SDS011;3661;53.288;10.458;2022-07-29T17:31:57;7.53;;;7.13;;
7239;SDS011;3661;53.288;10.458;2022-07-29T17:34:30;9.95;;;7.97;;
7239;SDS011;3661;53.288;10.458;2022-07-29T17:37:03;6.75;;;6.30;;